Montrose Regional Airport Montrose US
ICAO: KMTJ
IATA: MTJ
Category: Medium
Scheduled Services: No

Elevation: 5759 ft
TransAlt. 18000 ft.

Airport Communications:
ASOS:135.225
DENVER CNTR:125.35
DENVER RDO:122.65
CTAF/UNICOM:122.8

KMTJ Zoom In..

If you have problems with the map follow the link
https://www.worldairports.se/pages/airport.php?
ICAO=KMTJ

Runways:

(A) RW 13 length 7510 ft width 100 ft
---- / hdg 127

(B) RW 17 length 10000 ft width 150 ft
ILS 111.30 / hdg 168

(C) RW 31 length 7510 ft width 100 ft
---- / hdg 307

(D) RW 35 length 10000 ft width 150 ft
---- / hdg 348

Location; KMTJ
Day. 13 / Time. 19.53 Zulu
* Altimeter: 30.14
* Temperature: 07° c. 44.6°f.
* Wind from: 340° Speed 10 kn.
Dewpoint: -02° c.
Visibility: 10 Statute Miles.
Clouds: Clear (automated report).

KMTJ 131953Z AUTO 34010KT 10SM CLR 07/M02 A3014 RMK AO2 SLP191 T00671022


Wind From 340°
Speed 10 kn.

 
 
jpsmedia worldairports.se 2019   terms of use